Time;durP1;ratioP1;P1;durP2;ratioP2;P2;SDS_P1;SDS_P2;PMS_P1;PMS_P2;Temp;Humidity;BMP_temperature;BMP_pressure;BME280_temperature;BME280_humidity;BME280_pressure;Samples;Min_cycle;Max_cycle;Signal;HPM_P1;HPM_P2
2022/10/31 00:00:58;;;;;;;4.93;3.08;;;22.70;56.10;;;;;;5047775;28;20025;-53
2022/10/31 00:03:26;;;;;;;5.07;2.67;;;22.70;56.10;;;;;;5046766;28;20345;-49
2022/10/31 00:05:52;;;;;;;5.65;3.13;;;22.60;56.10;;;;;;5049736;28;20114;-49
2022/10/31 00:08:18;;;;;;;5.03;2.70;;;22.70;56.10;;;;;;5048199;28;20692;-53
2022/10/31 00:10:45;;;;;;;4.63;3.25;;;22.70;56.10;;;;;;5049693;28;20041;-50
2022/10/31 00:13:13;;;;;;;4.05;2.70;;;22.70;56.00;;;;;;5052877;28;20808;-53
2022/10/31 00:15:40;;;;;;;6.18;3.17;;;22.60;56.00;;;;;;5053186;28;20344;-49
2022/10/31 00:18:07;;;;;;;3.70;2.47;;;22.70;56.10;;;;;;5053891;28;20024;-51
2022/10/31 00:20:34;;;;;;;5.28;2.80;;;22.60;56.00;;;;;;5052970;28;20025;-49
2022/10/31 00:23:01;;;;;;;4.43;2.83;;;22.70;56.10;;;;;;5052464;28;20036;-51
2022/10/31 00:25:28;;;;;;;5.07;3.17;;;22.60;56.00;;;;;;5053260;28;20029;-51
2022/10/31 00:27:54;;;;;;;4.60;2.70;;;22.60;56.00;;;;;;5052887;28;20106;-53
2022/10/31 00:30:21;;;;;;;4.55;2.80;;;22.60;56.00;;;;;;5049959;28;20037;-48
2022/10/31 00:32:46;;;;;;;4.32;2.55;;;22.60;56.00;;;;;;5048862;28;20040;-49
2022/10/31 00:35:12;;;;;;;3.85;2.60;;;22.60;56.00;;;;;;5052044;28;20021;-49
2022/10/31 00:37:38;;;;;;;4.70;2.90;;;22.60;56.00;;;;;;5051913;28;20440;-50
2022/10/31 00:40:04;;;;;;;3.55;2.35;;;22.60;56.00;;;;;;5051477;28;20025;-48
2022/10/31 00:42:31;;;;;;;4.53;2.90;;;22.60;56.00;;;;;;5054105;28;20025;-48
2022/10/31 00:44:57;;;;;;;4.53;2.45;;;22.60;56.00;;;;;;5041733;28;20032;-49
2022/10/31 00:47:23;;;;;;;3.58;2.30;;;22.60;56.00;;;;;;5049666;28;20021;-46
2022/10/31 00:49:49;;;;;;;4.00;2.70;;;22.60;56.00;;;;;;5052052;28;20353;-49
2022/10/31 00:52:15;;;;;;;3.33;2.47;;;22.60;56.00;;;;;;5052702;28;20029;-46
2022/10/31 00:54:41;;;;;;;5.05;2.97;;;22.60;56.00;;;;;;5049903;28;20124;-50
2022/10/31 00:57:07;;;;;;;5.50;2.80;;;22.50;55.90;;;;;;5051595;28;20389;-50
2022/10/31 00:59:33;;;;;;;3.42;2.42;;;22.60;55.90;;;;;;5050771;28;20492;-54
2022/10/31 01:01:58;;;;;;;3.92;2.35;;;22.60;55.90;;;;;;5050820;28;20039;-50
2022/10/31 01:04:25;;;;;;;3.92;2.50;;;22.60;55.90;;;;;;5048321;28;20029;-49
2022/10/31 01:06:50;;;;;;;3.90;2.45;;;22.60;55.90;;;;;;5053188;28;20087;-48
2022/10/31 01:09:16;;;;;;;4.47;2.50;;;22.60;55.90;;;;;;5043388;28;20048;-49
2022/10/31 01:11:42;;;;;;;3.30;2.45;;;22.60;55.90;;;;;;5050800;28;20447;-52
2022/10/31 01:14:09;;;;;;;4.25;2.50;;;22.60;55.90;;;;;;5050883;28;20776;-49
2022/10/31 01:16:34;;;;;;;5.25;2.50;;;22.50;55.80;;;;;;5050813;28;20033;-47
2022/10/31 01:19:00;;;;;;;4.15;2.38;;;22.50;55.70;;;;;;5048846;28;20024;-50
2022/10/31 01:21:28;;;;;;;3.70;2.58;;;22.50;55.70;;;;;;5050011;28;20370;-54
2022/10/31 01:23:57;;;;;;;3.78;1.83;;;22.50;55.70;;;;;;5049990;28;20020;-55
2022/10/31 01:26:25;;;;;;;4.25;2.63;;;22.50;55.60;;;;;;5051898;28;20040;-54
2022/10/31 01:28:55;;;;;;;3.35;2.10;;;22.50;55.60;;;;;;5049450;28;20036;-54
2022/10/31 01:31:24;;;;;;;2.95;2.10;;;22.50;55.60;;;;;;5052254;28;20033;-51
2022/10/31 01:33:50;;;;;;;4.82;2.53;;;22.50;55.60;;;;;;5050226;28;20133;-47
2022/10/31 01:36:20;;;;;;;4.05;2.30;;;22.50;55.60;;;;;;5050084;28;20033;-51
2022/10/31 01:38:51;;;;;;;5.35;2.47;;;22.50;55.60;;;;;;5051201;28;20022;-50
2022/10/31 01:41:23;;;;;;;3.90;2.40;;;22.50;55.60;;;;;;5051658;28;20032;-49
2022/10/31 01:43:48;;;;;;;3.95;2.53;;;22.50;55.50;;;;;;5036659;28;20025;-50
2022/10/31 01:46:17;;;;;;;5.45;3.05;;;22.50;55.50;;;;;;5050625;28;20094;-49
2022/10/31 01:48:43;;;;;;;3.88;2.65;;;22.50;55.50;;;;;;5050661;28;20029;-50
2022/10/31 01:51:12;;;;;;;5.72;2.30;;;22.50;55.50;;;;;;5048028;28;20041;-48
2022/10/31 01:53:39;;;;;;;4.00;2.33;;;22.50;55.50;;;;;;5048124;28;20037;-49
2022/10/31 01:56:06;;;;;;;4.03;2.10;;;22.50;55.50;;;;;;5051475;28;20029;-51
2022/10/31 01:58:32;;;;;;;2.78;1.75;;;22.40;55.50;;;;;;5048532;28;20112;-50
2022/10/31 02:01:01;;;;;;;3.53;2.17;;;22.40;55.40;;;;;;5048330;28;20191;-52
2022/10/31 02:03:27;;;;;;;4.50;2.45;;;22.40;55.40;;;;;;5064843;28;20044;-48
2022/10/31 02:05:55;;;;;;;4.63;2.65;;;22.40;55.40;;;;;;5050689;28;20381;-50
2022/10/31 02:08:33;;;;;;;4.28;2.33;;;22.40;55.30;;;;;;5049048;28;20052;-50
2022/10/31 02:11:00;;;;;;;4.35;2.42;;;22.40;55.20;;;;;;5035265;28;20114;-53
2022/10/31 02:13:28;;;;;;;3.55;2.20;;;22.40;55.20;;;;;;5050853;28;20104;-51
2022/10/31 02:15:57;;;;;;;2.85;2.10;;;22.40;55.20;;;;;;5049068;28;20119;-51
2022/10/31 02:18:25;;;;;;;3.42;2.00;;;22.40;55.20;;;;;;5049046;28;20029;-50
2022/10/31 02:21:09;;;;;;;4.05;2.30;;;22.40;55.20;;;;;;5050809;28;20028;-50
2022/10/31 02:24:08;;;;;;;3.47;2.10;;;22.40;55.20;;;;;;5049521;28;20040;-50
2022/10/31 02:26:41;;;;;;;4.28;2.60;;;22.40;55.20;;;;;;5041684;28;20399;-50
2022/10/31 02:29:12;;;;;;;3.45;2.25;;;22.40;55.20;;;;;;5050056;28;20067;-49
2022/10/31 02:31:44;;;;;;;3.35;2.40;;;22.40;55.20;;;;;;5049757;28;20414;-48
2022/10/31 02:34:13;;;;;;;3.45;2.20;;;22.40;55.20;;;;;;5047327;28;20029;-49
2022/10/31 02:36:52;;;;;;;3.15;2.28;;;22.40;55.20;;;;;;5050413;28;20035;-51
2022/10/31 02:39:26;;;;;;;3.63;2.30;;;22.40;55.10;;;;;;5048129;28;20055;-47
2022/10/31 02:42:17;;;;;;;3.38;2.00;;;22.40;55.10;;;;;;5046483;28;20048;-50
2022/10/31 02:44:56;;;;;;;3.17;2.08;;;22.40;55.20;;;;;;5049469;28;20233;-47
2022/10/31 02:47:28;;;;;;;3.50;2.22;;;22.40;55.20;;;;;;5048939;28;20059;-49
2022/10/31 02:50:12;;;;;;;3.05;2.13;;;22.40;55.10;;;;;;5049576;28;20044;-50
2022/10/31 02:52:38;;;;;;;4.00;2.13;;;22.40;55.10;;;;;;5034919;28;20488;-51
2022/10/31 02:55:22;;;;;;;3.38;2.20;;;22.30;55.00;;;;;;5049043;28;20991;-49
2022/10/31 02:57:50;;;;;;;4.10;2.22;;;22.40;55.00;;;;;;5035942;28;20048;-51
2022/10/31 03:00:16;;;;;;;3.83;2.35;;;22.30;54.90;;;;;;5046960;28;20107;-49
2022/10/31 03:02:56;;;;;;;2.88;2.28;;;22.30;54.90;;;;;;5046413;28;20132;-49
2022/10/31 03:05:37;;;;;;;3.53;2.10;;;22.30;54.90;;;;;;5048693;28;20352;-51
2022/10/31 03:08:25;;;;;;;3.47;2.03;;;22.30;54.80;;;;;;5046347;28;20166;-52
2022/10/31 03:10:58;;;;;;;3.00;2.28;;;22.30;55.40;;;;;;5049190;28;20098;-51
2022/10/31 03:13:45;;;;;;;2.75;1.85;;;22.30;54.70;;;;;;5033069;28;20028;-50
2022/10/31 03:16:14;;;;;;;3.72;2.20;;;22.30;54.70;;;;;;5046572;28;20044;-51
2022/10/31 03:19:38;;;;;;;4.40;2.22;;;22.30;54.80;;;;;;5046813;28;20021;-52
2022/10/31 03:22:17;;;;;;;4.35;2.88;;;22.30;54.80;;;;;;5033118;28;20127;-49
2022/10/31 03:24:44;;;;;;;3.20;2.20;;;22.30;54.80;;;;;;5048459;28;20056;-53
2022/10/31 03:27:16;;;;;;;3.72;2.30;;;22.30;54.80;;;;;;5048939;28;20033;-55
2022/10/31 03:29:44;;;;;;;4.00;2.13;;;22.20;54.80;;;;;;5052251;28;20054;-55
2022/10/31 03:32:19;;;;;;;3.20;1.70;;;22.20;54.80;;;;;;5049464;28;20480;-53
2022/10/31 03:34:47;;;;;;;3.15;2.13;;;22.20;54.80;;;;;;5054370;28;20013;-56
2022/10/31 03:37:18;;;;;;;3.30;2.20;;;22.20;54.80;;;;;;5048573;28;20017;-54
2022/10/31 03:39:47;;;;;;;3.28;2.10;;;22.30;54.90;;;;;;5042915;28;20024;-52
2022/10/31 03:42:36;;;;;;;3.35;2.33;;;22.20;54.80;;;;;;5048490;28;20407;-52
2022/10/31 03:45:12;;;;;;;2.85;2.00;;;22.30;54.80;;;;;;5031849;28;20030;-51
2022/10/31 03:47:42;;;;;;;3.45;2.13;;;22.20;54.80;;;;;;5049780;28;20029;-52
2022/10/31 03:50:10;;;;;;;3.40;2.30;;;22.20;54.80;;;;;;5051395;28;20360;-49
2022/10/31 03:53:01;;;;;;;3.80;2.50;;;22.20;54.80;;;;;;5041215;28;20024;-52
2022/10/31 03:55:42;;;;;;;2.90;2.20;;;22.20;55.40;;;;;;5050185;28;20085;-51
2022/10/31 03:58:16;;;;;;;2.65;1.90;;;22.20;54.70;;;;;;5035136;28;20029;-52
2022/10/31 04:00:45;;;;;;;2.53;1.92;;;22.20;54.70;;;;;;5051217;28;20049;-50
2022/10/31 04:03:27;;;;;;;3.95;1.90;;;22.20;54.70;;;;;;5052463;28;20360;-51
2022/10/31 04:05:58;;;;;;;2.95;2.13;;;22.20;54.70;;;;;;5051973;28;20055;-49
2022/10/31 04:08:29;;;;;;;3.47;2.33;;;22.20;54.70;;;;;;5051219;28;20024;-48
2022/10/31 04:10:58;;;;;;;3.08;2.10;;;22.20;54.70;;;;;;5036859;28;20037;-50
2022/10/31 04:13:29;;;;;;;2.33;1.88;;;22.20;54.70;;;;;;5052173;28;20444;-54
2022/10/31 04:16:02;;;;;;;2.55;1.92;;;22.20;54.70;;;;;;5048163;28;20045;-51
2022/10/31 04:18:28;;;;;;;3.83;2.08;;;22.20;54.60;;;;;;5054049;28;20112;-54
2022/10/31 04:21:08;;;;;;;4.22;2.03;;;22.20;54.60;;;;;;5052633;28;20053;-51
2022/10/31 04:23:36;;;;;;;3.05;2.05;;;22.20;54.70;;;;;;5053137;28;20024;-47
2022/10/31 04:26:13;;;;;;;4.60;2.20;;;22.20;54.60;;;;;;5050674;28;20039;-51
2022/10/31 04:28:39;;;;;;;2.35;1.85;;;22.20;54.70;;;;;;5053373;28;20029;-51
2022/10/31 04:31:05;;;;;;;3.60;2.38;;;22.10;54.60;;;;;;5051499;28;20049;-52
2022/10/31 04:33:34;;;;;;;2.45;1.92;;;22.10;54.60;;;;;;5037092;28;20473;-52
2022/10/31 04:36:01;;;;;;;4.75;1.92;;;22.10;54.60;;;;;;5049342;28;20039;-52
2022/10/31 04:38:27;;;;;;;2.83;1.85;;;22.10;54.60;;;;;;5047082;28;20100;-51
2022/10/31 04:40:53;;;;;;;3.50;1.77;;;22.10;54.50;;;;;;5050611;28;20100;-51
2022/10/31 04:43:38;;;;;;;2.58;1.95;;;22.10;54.50;;;;;;5051367;28;20044;-52
2022/10/31 04:46:04;;;;;;;3.83;1.80;;;22.10;54.60;;;;;;5051914;28;20028;-49
2022/10/31 04:48:30;;;;;;;3.25;2.10;;;22.10;54.60;;;;;;5054862;28;20029;-50
2022/10/31 04:51:00;;;;;;;4.30;2.45;;;22.10;54.60;;;;;;5034032;28;20420;-51
2022/10/31 04:53:27;;;;;;;3.28;2.28;;;22.10;54.60;;;;;;5051653;28;20324;-49
2022/10/31 04:56:11;;;;;;;2.95;2.03;;;22.10;54.50;;;;;;5052514;28;20036;-49
2022/10/31 04:58:41;;;;;;;2.47;1.80;;;22.10;54.50;;;;;;5049070;28;20432;-48
2022/10/31 05:01:09;;;;;;;3.42;2.25;;;22.10;54.50;;;;;;5051109;28;20075;-53
2022/10/31 05:03:34;;;;;;;3.17;1.90;;;22.10;54.50;;;;;;5035765;28;20475;-49
2022/10/31 05:06:01;;;;;;;3.72;2.15;;;22.10;54.50;;;;;;5052960;28;20330;-48
2022/10/31 05:08:27;;;;;;;3.65;2.13;;;22.10;54.50;;;;;;5050161;28;20108;-48
2022/10/31 05:10:54;;;;;;;2.88;2.30;;;22.10;54.50;;;;;;5048064;28;20032;-53
2022/10/31 05:13:20;;;;;;;3.03;2.20;;;22.00;54.40;;;;;;5050099;28;20025;-52
2022/10/31 05:16:05;;;;;;;3.38;2.08;;;22.10;54.40;;;;;;5051755;28;20056;-51
2022/10/31 05:18:49;;;;;;;;;;;22.00;54.30;;;;;;5053621;28;20044;-50
2022/10/31 05:21:35;;;;;;;3.10;2.10;;;22.10;54.40;;;;;;5043660;28;19986;-49
2022/10/31 05:24:02;;;;;;;3.33;1.95;;;22.00;54.30;;;;;;5050602;28;20095;-51
2022/10/31 05:26:29;;;;;;;6.07;2.13;;;22.00;54.30;;;;;;5049277;28;20106;-53
2022/10/31 05:28:55;;;;;;;3.60;2.03;;;22.00;54.30;;;;;;5049808;28;20399;-48
2022/10/31 05:31:22;;;;;;;2.35;2.00;;;22.00;54.30;;;;;;5050106;28;20060;-50
2022/10/31 05:33:49;;;;;;;3.05;2.00;;;22.00;54.30;;;;;;5050198;28;20035;-53
2022/10/31 05:36:33;;;;;;;3.15;2.08;;;22.00;54.30;;;;;;5051154;28;20040;-55
2022/10/31 05:39:03;;;;;;;3.25;2.00;;;22.00;54.40;;;;;;5050144;28;20094;-52
2022/10/31 05:41:36;;;;;;;4.88;2.40;;;22.00;55.00;;;;;;5049360;28;20418;-54
2022/10/31 05:44:14;;;;;;;2.50;2.30;;;22.00;54.40;;;;;;5047870;28;20037;-51
2022/10/31 05:46:56;;;;;;;3.88;2.15;;;22.00;54.50;;;;;;5050322;28;20112;-48
2022/10/31 05:49:42;;;;;;;;;;;22.00;54.50;;;;;;5051608;28;20048;-50
2022/10/31 05:52:26;;;;;;;2.60;2.30;;;21.90;54.40;;;;;;5049854;28;19935;-49
2022/10/31 05:55:00;;;;;;;3.50;2.40;;;22.00;54.50;;;;;;5050426;28;20475;-51
2022/10/31 05:57:27;;;;;;;3.20;1.95;;;22.00;54.50;;;;;;5050250;28;20329;-47
2022/10/31 05:59:55;;;;;;;3.28;2.28;;;21.90;54.50;;;;;;5050245;28;20098;-49
2022/10/31 06:02:22;;;;;;;4.20;1.95;;;22.00;54.50;;;;;;5039991;28;20035;-52
2022/10/31 06:05:06;;;;;;;;;;;22.00;54.50;;;;;;5051144;28;20098;-48
2022/10/31 06:07:36;;;;;;;3.38;2.38;;;21.90;54.50;;;;;;5049743;28;19917;-47
2022/10/31 06:10:06;;;;;;;2.47;1.95;;;21.90;54.50;;;;;;5045547;28;20083;-50
2022/10/31 06:12:37;;;;;;;3.53;2.05;;;21.90;54.50;;;;;;5050469;28;20035;-50
2022/10/31 06:15:13;;;;;;;4.30;2.33;;;21.90;54.50;;;;;;5033672;28;20063;-48
2022/10/31 06:17:39;;;;;;;3.53;2.38;;;21.90;54.50;;;;;;5049344;28;20069;-48
2022/10/31 06:20:25;;;;;;;;;;;21.90;54.50;;;;;;5051078;28;20056;-48
2022/10/31 06:23:11;;;;;;;3.83;2.38;;;21.90;54.50;;;;;;5051061;28;19996;-53
2022/10/31 06:25:37;;;;;;;3.10;2.10;;;21.90;54.50;;;;;;5047898;28;20160;-53
2022/10/31 06:28:05;;;;;;;4.88;2.22;;;21.90;54.60;;;;;;5040372;28;20029;-50
2022/10/31 06:30:50;;;;;;;2.85;2.30;;;21.90;54.60;;;;;;5047577;28;20120;-52
2022/10/31 06:33:16;;;;;;;3.78;2.17;;;21.90;54.60;;;;;;5049396;28;20029;-51
2022/10/31 06:35:52;;;;;;;2.75;2.30;;;21.90;54.60;;;;;;5050219;28;20039;-51
2022/10/31 06:38:17;;;;;;;4.47;2.67;;;21.90;54.50;;;;;;5042995;28;20452;-50
2022/10/31 06:40:43;;;;;;;4.95;2.35;;;21.90;54.50;;;;;;5047356;28;20352;-48
2022/10/31 06:43:35;;;;;;;3.85;2.40;;;21.90;54.50;;;;;;5048106;28;20044;-47
2022/10/31 06:46:17;;;;;;;3.00;2.35;;;21.90;54.50;;;;;;5045912;28;20029;-50
2022/10/31 06:48:57;;;;;;;3.67;2.38;;;21.90;54.50;;;;;;5045481;28;20386;-52
2022/10/31 06:51:34;;;;;;;2.67;2.20;;;21.90;54.60;;;;;;5049394;28;20437;-50
2022/10/31 06:54:01;;;;;;;3.83;2.70;;;21.90;54.60;;;;;;5047958;28;20033;-51
2022/10/31 06:56:27;;;;;;;2.60;2.20;;;21.90;54.60;;;;;;5046605;28;20052;-53
2022/10/31 06:58:55;;;;;;;4.25;2.40;;;21.90;54.50;;;;;;5045342;28;20031;-52
2022/10/31 07:01:39;;;;;;;5.97;2.50;;;21.90;54.50;;;;;;5045410;28;20029;-47
2022/10/31 07:04:09;;;;;;;2.58;2.08;;;21.90;54.50;;;;;;5047400;28;20043;-51
2022/10/31 07:06:35;;;;;;;3.63;2.03;;;21.90;54.60;;;;;;5049288;28;20071;-49
2022/10/31 07:09:06;;;;;;;3.60;2.28;;;21.90;54.60;;;;;;5045665;28;20464;-55
2022/10/31 07:11:32;;;;;;;4.30;2.05;;;21.90;54.60;;;;;;5052908;28;20100;-53
2022/10/31 07:13:58;;;;;;;3.53;2.60;;;21.90;54.60;;;;;;5051898;28;20032;-50
2022/10/31 07:16:24;;;;;;;3.22;2.40;;;21.90;54.60;;;;;;5047818;28;20490;-53
2022/10/31 07:18:50;;;;;;;3.40;2.38;;;21.90;54.60;;;;;;5046596;28;20170;-52
2022/10/31 07:21:16;;;;;;;5.57;2.60;;;21.90;54.70;;;;;;5046038;28;20029;-53
2022/10/31 07:23:42;;;;;;;5.95;3.03;;;21.90;54.70;;;;;;5031175;28;20033;-52
2022/10/31 07:26:27;;;;;;;5.07;2.67;;;21.90;54.70;;;;;;5048716;28;20806;-52
2022/10/31 07:28:53;;;;;;;5.32;3.03;;;21.90;54.70;;;;;;5043023;28;20021;-50
2022/10/31 07:31:22;;;;;;;6.18;2.97;;;21.90;54.70;;;;;;5043003;28;20029;-50
2022/10/31 07:33:50;;;;;;;4.72;2.95;;;21.90;54.70;;;;;;5043662;28;21154;-50
2022/10/31 07:36:50;;;;;;;4.95;3.05;;;21.90;54.70;;;;;;5050764;28;20048;-50
2022/10/31 07:39:16;;;;;;;5.95;3.45;;;21.90;54.70;;;;;;5030665;28;20025;-51
2022/10/31 07:41:43;;;;;;;10.75;3.50;;;21.90;54.80;;;;;;5043985;28;20446;-53
2022/10/31 07:44:11;;;;;;;6.75;3.75;;;21.90;54.90;;;;;;5044570;28;20028;-54
2022/10/31 07:46:55;;;;;;;5.70;3.28;;;21.90;54.90;;;;;;5050478;28;20039;-54
2022/10/31 07:49:39;;;;;;;6.35;3.50;;;21.90;55.00;;;;;;5049716;28;20055;-54
2022/10/31 07:52:25;;;;;;;6.90;3.83;;;21.80;55.00;;;;;;5045953;28;20033;-51
2022/10/31 07:55:15;;;;;;;9.93;5.50;;;21.90;55.20;;;;;;5049286;28;20056;-52
2022/10/31 07:57:46;;;;;;;11.60;4.93;;;21.80;55.30;;;;;;5042676;28;20033;-49
2022/10/31 08:00:12;;;;;;;11.75;5.65;;;21.90;55.40;;;;;;5055535;28;20033;-47
2022/10/31 08:02:40;;;;;;;12.43;5.15;;;21.90;55.50;;;;;;5055496;28;20037;-53
2022/10/31 08:05:33;;;;;;;9.95;5.18;;;21.90;55.60;;;;;;5046350;28;20063;-50
2022/10/31 08:08:19;;;;;;;11.32;5.57;;;21.90;55.60;;;;;;5002865;28;20033;-49
2022/10/31 08:10:46;;;;;;;10.50;4.85;;;21.90;55.60;;;;;;5049839;28;20044;-50
2022/10/31 08:13:15;;;;;;;8.73;4.80;;;21.90;55.50;;;;;;5053204;28;20438;-50
2022/10/31 08:15:49;;;;;;;9.52;5.10;;;21.90;55.50;;;;;;5045588;28;20021;-49
2022/10/31 08:18:16;;;;;;;8.05;5.32;;;21.90;55.60;;;;;;5048449;28;20360;-51
2022/10/31 08:20:43;;;;;;;10.32;4.63;;;21.90;55.60;;;;;;5046189;28;20032;-51
2022/10/31 08:23:11;;;;;;;8.68;4.63;;;21.90;55.60;;;;;;5051363;28;20036;-53
2022/10/31 08:25:37;;;;;;;9.95;4.70;;;21.90;55.70;;;;;;5045664;28;20021;-53
2022/10/31 08:28:03;;;;;;;9.20;4.88;;;21.90;55.70;;;;;;5046003;28;20044;-51
2022/10/31 08:30:31;;;;;;;8.15;4.60;;;21.90;55.70;;;;;;5046049;28;20128;-53
2022/10/31 08:33:37;;;;;;;10.73;4.85;;;21.90;55.70;;;;;;4986652;28;20410;-50
2022/10/31 08:36:21;;;;;;;8.48;4.45;;;21.90;55.70;;;;;;4986590;28;20038;-51
2022/10/31 08:39:00;;;;;;;7.00;4.28;;;21.90;55.70;;;;;;5028446;28;20099;-51
2022/10/31 08:41:27;;;;;;;6.47;4.35;;;21.90;55.70;;;;;;5050907;28;20017;-49
2022/10/31 08:43:53;;;;;;;6.40;4.07;;;22.00;55.80;;;;;;5048997;28;20025;-51
2022/10/31 08:46:20;;;;;;;8.10;3.55;;;22.00;55.90;;;;;;5031890;28;20020;-48
2022/10/31 08:48:50;;;;;;;7.38;4.30;;;22.00;55.90;;;;;;5050149;28;20033;-51
2022/10/31 08:51:16;;;;;;;6.57;4.13;;;21.90;55.90;;;;;;5048842;28;20029;-50
2022/10/31 08:53:43;;;;;;;7.07;4.07;;;22.00;56.00;;;;;;5044640;28;20029;-51
2022/10/31 08:56:48;;;;;;;8.00;4.47;;;21.90;55.90;;;;;;5046870;28;20029;-48
2022/10/31 08:59:37;;;;;;;5.38;3.53;;;22.00;56.00;;;;;;5049934;28;20045;-54
2022/10/31 09:02:12;;;;;;;7.65;4.32;;;22.00;56.00;;;;;;5052389;28;20045;-51
2022/10/31 09:04:46;;;;;;;6.97;4.00;;;21.90;56.00;;;;;;5051271;28;20021;-53
2022/10/31 09:07:12;;;;;;;8.45;4.07;;;22.00;56.10;;;;;;5047767;28;20068;-49
2022/10/31 09:09:39;;;;;;;8.05;4.25;;;22.00;56.10;;;;;;5049123;28;20447;-54
2022/10/31 09:12:05;;;;;;;6.60;3.72;;;22.00;56.70;;;;;;5048526;28;20025;-52
2022/10/31 09:14:50;;;;;;;5.72;3.97;;;22.00;56.10;;;;;;5050234;28;20032;-49
2022/10/31 09:17:22;;;;;;;5.75;3.88;;;22.00;56.20;;;;;;5047723;28;20057;-50
2022/10/31 09:20:12;;;;;;;5.40;3.50;;;22.00;56.20;;;;;;5047250;28;20044;-53
2022/10/31 09:22:39;;;;;;;7.20;4.32;;;22.00;56.30;;;;;;5045770;28;20021;-52
2022/10/31 09:25:05;;;;;;;6.75;3.92;;;22.00;56.30;;;;;;5050822;28;20033;-52
2022/10/31 09:27:31;;;;;;;5.78;3.50;;;22.10;56.30;;;;;;5053182;28;20400;-51
2022/10/31 09:29:57;;;;;;;9.10;3.80;;;22.00;56.10;;;;;;5053153;28;20040;-52
2022/10/31 09:32:23;;;;;;;5.75;3.63;;;22.00;56.00;;;;;;5054638;28;20025;-54
2022/10/31 09:34:49;;;;;;;5.07;3.35;;;22.00;56.00;;;;;;5053694;28;20025;-50
2022/10/31 09:37:19;;;;;;;4.82;3.40;;;22.10;55.90;;;;;;5052302;28;20061;-53
2022/10/31 09:39:44;;;;;;;5.53;3.35;;;22.10;55.90;;;;;;5053872;28;20056;-50
2022/10/31 09:42:38;;;;;;;4.22;3.28;;;22.10;55.80;;;;;;5054642;28;20033;-53
2022/10/31 09:45:23;;;;;;;5.50;3.35;;;22.10;55.70;;;;;;5052434;28;20029;-55
2022/10/31 09:48:34;;;;;;;4.32;3.10;;;22.10;55.60;;;;;;5051827;28;20032;-54
2022/10/31 09:51:33;;;;;;;4.95;3.30;;;22.10;55.60;;;;;;5046992;28;20041;-52
2022/10/31 09:54:16;;;;;;;5.07;2.95;;;22.10;55.60;;;;;;5063024;28;20029;-51
2022/10/31 09:56:43;;;;;;;5.80;3.00;;;22.10;55.60;;;;;;5043104;28;20026;-55
2022/10/31 09:59:24;;;;;;;4.10;2.92;;;22.10;55.60;;;;;;5052836;28;20024;-51
2022/10/31 10:02:26;;;;;;;4.20;3.28;;;22.10;55.50;;;;;;5044204;28;20394;-52
2022/10/31 10:05:04;;;;;;;4.93;3.65;;;22.10;55.50;;;;;;5051515;28;20060;-47
2022/10/31 10:07:32;;;;;;;5.13;3.00;;;22.10;55.60;;;;;;5052427;28;20146;-51
2022/10/31 10:10:50;;;;;;;5.60;2.88;;;22.10;55.50;;;;;;5055552;28;20059;-52
2022/10/31 10:13:51;;;;;;;7.25;3.00;;;22.10;55.50;;;;;;5034663;28;20051;-52
2022/10/31 10:16:35;;;;;;;4.75;3.40;;;22.10;55.60;;;;;;5053112;28;20461;-49
2022/10/31 10:19:27;;;;;;;6.43;3.25;;;22.10;55.60;;;;;;5052340;28;20091;-51
2022/10/31 10:22:04;;;;;;;4.88;3.20;;;22.10;55.60;;;;;;5053805;28;20025;-46
2022/10/31 10:24:51;;;;;;;4.63;3.25;;;22.10;55.70;;;;;;5053541;28;20087;-52
2022/10/31 10:27:38;;;;;;;4.40;3.13;;;22.10;55.70;;;;;;5053266;28;20116;-52
2022/10/31 10:30:20;;;;;;;5.13;3.20;;;22.10;55.70;;;;;;5051188;28;20037;-51
2022/10/31 10:32:57;;;;;;;5.70;3.55;;;22.10;55.80;;;;;;5054387;28;20103;-52
2022/10/31 10:35:50;;;;;;;5.28;3.72;;;22.10;55.80;;;;;;5052802;28;20037;-49
2022/10/31 10:38:43;;;;;;;5.05;3.47;;;22.10;55.80;;;;;;5053162;28;20025;-50
2022/10/31 10:41:20;;;;;;;6.53;3.90;;;22.10;55.90;;;;;;5052917;28;20075;-50
2022/10/31 10:43:49;;;;;;;5.40;3.30;;;22.10;55.90;;;;;;5049432;28;20413;-50
2022/10/31 10:49:43;;;;;;;6.40;3.83;;;22.10;56.00;;;;;;5051890;28;20036;-54
2022/10/31 10:52:28;;;;;;;6.15;3.60;;;22.10;55.90;;;;;;5052289;28;20020;-52
2022/10/31 10:55:24;;;;;;;5.90;3.45;;;22.10;55.90;;;;;;5052277;28;20109;-55
2022/10/31 10:57:58;;;;;;;5.95;3.97;;;22.10;56.00;;;;;;5050868;28;20096;-52
2022/10/31 11:00:26;;;;;;;6.13;3.97;;;22.10;56.00;;;;;;5054121;28;20064;-50
2022/10/31 11:02:52;;;;;;;7.43;3.67;;;22.10;56.00;;;;;;5053687;28;20049;-50
2022/10/31 11:05:35;;;;;;;4.90;3.50;;;22.10;56.10;;;;;;5053987;28;20024;-53
2022/10/31 11:08:02;;;;;;;6.15;3.80;;;22.10;56.10;;;;;;5048158;28;20120;-54
2022/10/31 11:10:28;;;;;;;6.57;3.92;;;22.10;56.10;;;;;;5054295;28;20106;-49
2022/10/31 11:13:02;;;;;;;6.47;4.22;;;22.20;56.10;;;;;;5061414;28;20036;-49
2022/10/31 11:15:30;;;;;;;5.68;3.75;;;22.20;56.10;;;;;;5053049;28;20033;-57
2022/10/31 11:17:57;;;;;;;6.22;4.07;;;22.10;56.00;;;;;;5042322;28;20427;-59
2022/10/31 11:20:35;;;;;;;4.88;3.65;;;22.10;56.10;;;;;;5048369;28;20503;-58
2022/10/31 11:23:05;;;;;;;7.55;4.15;;;22.20;56.30;;;;;;5042784;28;20372;-56
2022/10/31 11:25:37;;;;;;;5.68;3.65;;;22.20;56.30;;;;;;5037355;28;20034;-55
2022/10/31 11:28:08;;;;;;;7.22;3.90;;;22.30;56.30;;;;;;5036995;28;20419;-55
2022/10/31 11:31:07;;;;;;;5.63;3.67;;;22.30;56.20;;;;;;5039131;28;20103;-59
2022/10/31 11:33:39;;;;;;;6.18;2.90;;;22.40;56.00;;;;;;5042018;28;20476;-59
2022/10/31 11:36:23;;;;;;;5.25;3.30;;;22.60;55.90;;;;;;5038768;28;20037;-59
2022/10/31 11:38:51;;;;;;;6.10;3.40;;;22.70;55.60;;;;;;5034908;28;20456;-58
2022/10/31 11:41:25;;;;;;;6.20;3.58;;;22.80;55.40;;;;;;5048133;28;20025;-58
2022/10/31 11:43:57;;;;;;;5.55;3.42;;;22.90;55.20;;;;;;5051096;28;20022;-56
2022/10/31 11:46:50;;;;;;;4.47;3.47;;;23.00;55.00;;;;;;5034243;28;20029;-51
2022/10/31 11:49:29;;;;;;;6.07;3.28;;;23.10;54.70;;;;;;5034484;28;20034;-57
2022/10/31 11:51:57;;;;;;;5.15;3.38;;;23.20;54.50;;;;;;5049539;28;20029;-56
2022/10/31 11:54:53;;;;;;;5.15;3.85;;;23.30;54.30;;;;;;5034347;28;20025;-57
2022/10/31 11:57:29;;;;;;;5.45;3.40;;;23.40;54.10;;;;;;5065123;28;20033;-57
2022/10/31 11:59:57;;;;;;;6.75;3.53;;;23.50;53.90;;;;;;5043556;28;20037;-59
2022/10/31 12:02:24;;;;;;;4.68;3.05;;;23.60;53.80;;;;;;5046337;28;20025;-57
2022/10/31 12:05:11;;;;;;;6.03;3.47;;;23.60;53.60;;;;;;5054592;28;20059;-65
2022/10/31 12:07:37;;;;;;;5.47;3.60;;;23.70;53.40;;;;;;5049137;28;20071;-59
2022/10/31 12:10:11;;;;;;;5.70;3.53;;;23.80;53.40;;;;;;5054600;28;20426;-55
2022/10/31 12:12:48;;;;;;;7.90;3.65;;;23.80;53.20;;;;;;5050275;28;20143;-59
2022/10/31 12:15:33;;;;;;;7.32;3.28;;;23.90;53.20;;;;;;5051361;28;20360;-57
2022/10/31 12:18:24;;;;;;;5.35;3.58;;;23.90;53.10;;;;;;5048471;28;20114;-59
2022/10/31 12:21:26;;;;;;;6.97;3.50;;;24.00;53.00;;;;;;5049385;28;20403;-63
2022/10/31 12:24:08;;;;;;;6.38;3.80;;;24.10;53.00;;;;;;5052969;28;20038;-57
2022/10/31 12:27:15;;;;;;;5.68;3.58;;;24.20;52.90;;;;;;5050812;28;20043;-59
2022/10/31 12:30:06;;;;;;;6.80;3.45;;;24.20;52.70;;;;;;5050459;28;20047;-55
2022/10/31 12:32:40;;;;;;;5.95;3.90;;;24.20;52.60;;;;;;5047470;28;20028;-53
2022/10/31 12:35:37;;;;;;;6.32;3.70;;;24.30;52.50;;;;;;5051735;28;20029;-55
2022/10/31 12:38:22;;;;;;;5.63;3.63;;;24.30;52.20;;;;;;5051122;28;20432;-52
2022/10/31 12:41:22;;;;;;;4.88;3.58;;;24.30;52.10;;;;;;5048733;28;20025;-54
2022/10/31 12:44:29;;;;;;;5.28;3.50;;;24.40;52.00;;;;;;5041566;28;20151;-53
2022/10/31 12:47:01;;;;;;;4.50;3.60;;;24.30;51.80;;;;;;5048867;28;20027;-57
2022/10/31 12:49:46;;;;;;;7.03;3.60;;;24.40;51.80;;;;;;5051701;28;20036;-55
2022/10/31 12:52:27;;;;;;;5.72;3.97;;;24.40;51.70;;;;;;5050116;28;20045;-59
2022/10/31 12:55:20;;;;;;;7.30;4.03;;;24.40;51.60;;;;;;5052182;28;20522;-56
2022/10/31 12:57:53;;;;;;;7.32;4.05;;;24.40;51.50;;;;;;5049805;28;20115;-57
2022/10/31 13:00:20;;;;;;;5.65;4.10;;;24.40;51.60;;;;;;5052740;28;20035;-57
2022/10/31 13:02:54;;;;;;;5.75;3.90;;;24.40;51.50;;;;;;5044548;28;20396;-54
2022/10/31 13:05:26;;;;;;;;;;;24.40;51.50;;;;;;5050634;28;20021;-57
2022/10/31 13:08:06;;;;;;;5.38;3.13;;;24.40;51.50;;;;;;5051047;28;19965;-52
2022/10/31 13:10:49;;;;;;;6.10;3.70;;;24.40;51.50;;;;;;5049162;28;20056;-57
2022/10/31 13:13:25;;;;;;;6.68;3.95;;;24.40;51.50;;;;;;5046624;28;20021;-54
2022/10/31 13:15:58;;;;;;;8.10;4.60;;;24.40;51.50;;;;;;5050386;28;20035;-55
2022/10/31 13:18:31;;;;;;;4.85;3.92;;;24.40;51.50;;;;;;5050578;28;21468;-54
2022/10/31 13:21:01;;;;;;;5.65;3.60;;;24.40;51.50;;;;;;5049466;28;20028;-53
2022/10/31 13:23:36;;;;;;;7.32;4.10;;;24.40;51.50;;;;;;5049944;28;20633;-59
2022/10/31 13:26:28;;;;;;;6.55;4.07;;;24.40;52.00;;;;;;5052878;28;20037;-55
2022/10/31 13:29:22;;;;;;;5.82;4.07;;;24.50;51.40;;;;;;5040802;28;20037;-50